sensor_id;sensor_type;location;lat;lon;timestamp;P1;durP1;ratioP1;P2;durP2;ratioP2
13114;SDS011;6623;52.120;8.660;2023-01-28T00:00:25;2.00;;;1.80;;
13114;SDS011;6623;52.120;8.660;2023-01-28T00:02:51;2.07;;;1.60;;
13114;SDS011;6623;52.120;8.660;2023-01-28T00:05:17;1.70;;;1.60;;
13114;SDS011;6623;52.120;8.660;2023-01-28T00:07:42;2.33;;;1.90;;
13114;SDS011;6623;52.120;8.660;2023-01-28T00:10:08;1.57;;;1.47;;
13114;SDS011;6623;52.120;8.660;2023-01-28T00:12:34;3.10;;;1.90;;
13114;SDS011;6623;52.120;8.660;2023-01-28T00:14:59;3.50;;;1.70;;
13114;SDS011;6623;52.120;8.660;2023-01-28T00:17:25;3.07;;;1.67;;
13114;SDS011;6623;52.120;8.660;2023-01-28T00:19:50;2.33;;;2.00;;
13114;SDS011;6623;52.120;8.660;2023-01-28T00:22:16;2.80;;;1.83;;
13114;SDS011;6623;52.120;8.660;2023-01-28T00:24:41;2.40;;;1.50;;
13114;SDS011;6623;52.120;8.660;2023-01-28T00:27:07;2.50;;;2.13;;
13114;SDS011;6623;52.120;8.660;2023-01-28T00:29:33;2.00;;;1.80;;
13114;SDS011;6623;52.120;8.660;2023-01-28T00:31:58;2.73;;;1.83;;
13114;SDS011;6623;52.120;8.660;2023-01-28T00:34:24;1.80;;;1.70;;
13114;SDS011;6623;52.120;8.660;2023-01-28T00:36:49;1.90;;;1.30;;
13114;SDS011;6623;52.120;8.660;2023-01-28T00:39:24;2.03;;;1.60;;
13114;SDS011;6623;52.120;8.660;2023-01-28T00:41:51;1.87;;;1.70;;
13114;SDS011;6623;52.120;8.660;2023-01-28T00:44:18;1.70;;;1.60;;
13114;SDS011;6623;52.120;8.660;2023-01-28T00:46:44;1.97;;;1.60;;
13114;SDS011;6623;52.120;8.660;2023-01-28T00:49:10;2.00;;;1.80;;
13114;SDS011;6623;52.120;8.660;2023-01-28T00:51:36;2.17;;;1.60;;
13114;SDS011;6623;52.120;8.660;2023-01-28T00:54:01;2.23;;;1.80;;
13114;SDS011;6623;52.120;8.660;2023-01-28T00:56:27;2.30;;;2.10;;
13114;SDS011;6623;52.120;8.660;2023-01-28T00:58:53;2.47;;;2.10;;
13114;SDS011;6623;52.120;8.660;2023-01-28T01:01:21;2.70;;;2.50;;
13114;SDS011;6623;52.120;8.660;2023-01-28T01:03:48;2.80;;;2.00;;
13114;SDS011;6623;52.120;8.660;2023-01-28T01:06:21;2.13;;;1.80;;
13114;SDS011;6623;52.120;8.660;2023-01-28T01:08:48;2.17;;;1.63;;
13114;SDS011;6623;52.120;8.660;2023-01-28T01:11:14;2.40;;;1.70;;
13114;SDS011;6623;52.120;8.660;2023-01-28T01:13:40;3.00;;;1.70;;
13114;SDS011;6623;52.120;8.660;2023-01-28T01:16:07;3.20;;;2.13;;
13114;SDS011;6623;52.120;8.660;2023-01-28T01:18:38;2.17;;;1.97;;
13114;SDS011;6623;52.120;8.660;2023-01-28T01:21:11;2.10;;;1.67;;
13114;SDS011;6623;52.120;8.660;2023-01-28T01:23:38;3.60;;;2.30;;
13114;SDS011;6623;52.120;8.660;2023-01-28T01:26:04;3.13;;;1.90;;
13114;SDS011;6623;52.120;8.660;2023-01-28T01:28:30;2.07;;;1.80;;
13114;SDS011;6623;52.120;8.660;2023-01-28T01:31:00;2.23;;;1.77;;
13114;SDS011;6623;52.120;8.660;2023-01-28T01:33:28;3.03;;;2.20;;
13114;SDS011;6623;52.120;8.660;2023-01-28T01:35:54;3.70;;;2.40;;
13114;SDS011;6623;52.120;8.660;2023-01-28T01:38:20;2.47;;;2.00;;
13114;SDS011;6623;52.120;8.660;2023-01-28T01:40:46;1.97;;;1.87;;
13114;SDS011;6623;52.120;8.660;2023-01-28T01:43:19;2.50;;;1.97;;
13114;SDS011;6623;52.120;8.660;2023-01-28T01:45:47;3.87;;;2.13;;
13114;SDS011;6623;52.120;8.660;2023-01-28T01:48:22;2.70;;;2.37;;
13114;SDS011;6623;52.120;8.660;2023-01-28T01:50:54;7.23;;;2.07;;
13114;SDS011;6623;52.120;8.660;2023-01-28T01:53:30;3.50;;;2.43;;
13114;SDS011;6623;52.120;8.660;2023-01-28T01:55:58;2.50;;;1.90;;
13114;SDS011;6623;52.120;8.660;2023-01-28T01:58:29;3.17;;;1.83;;
13114;SDS011;6623;52.120;8.660;2023-01-28T02:00:57;3.30;;;2.07;;
13114;SDS011;6623;52.120;8.660;2023-01-28T02:03:35;3.03;;;2.23;;
13114;SDS011;6623;52.120;8.660;2023-01-28T02:06:11;2.40;;;1.83;;
13114;SDS011;6623;52.120;8.660;2023-01-28T02:08:37;2.57;;;2.20;;
13114;SDS011;6623;52.120;8.660;2023-01-28T02:11:04;2.87;;;2.27;;
13114;SDS011;6623;52.120;8.660;2023-01-28T02:13:35;3.33;;;2.20;;
13114;SDS011;6623;52.120;8.660;2023-01-28T02:16:05;2.37;;;2.00;;
13114;SDS011;6623;52.120;8.660;2023-01-28T02:18:32;2.40;;;1.60;;
13114;SDS011;6623;52.120;8.660;2023-01-28T02:23:53;2.00;;;1.80;;
13114;SDS011;6623;52.120;8.660;2023-01-28T02:29:20;3.50;;;1.87;;
13114;SDS011;6623;52.120;8.660;2023-01-28T02:32:14;2.77;;;1.70;;
13114;SDS011;6623;52.120;8.660;2023-01-28T02:34:54;1.70;;;1.50;;
13114;SDS011;6623;52.120;8.660;2023-01-28T02:37:39;1.80;;;1.70;;
13114;SDS011;6623;52.120;8.660;2023-01-28T02:40:24;2.10;;;1.90;;
13114;SDS011;6623;52.120;8.660;2023-01-28T02:42:54;4.80;;;2.13;;
13114;SDS011;6623;52.120;8.660;2023-01-28T02:45:27;3.07;;;1.73;;
13114;SDS011;6623;52.120;8.660;2023-01-28T02:48:15;2.20;;;2.00;;
13114;SDS011;6623;52.120;8.660;2023-01-28T02:51:04;2.20;;;1.83;;
13114;SDS011;6623;52.120;8.660;2023-01-28T02:54:03;3.87;;;2.20;;
13114;SDS011;6623;52.120;8.660;2023-01-28T02:56:51;3.10;;;1.90;;
13114;SDS011;6623;52.120;8.660;2023-01-28T02:59:25;2.33;;;2.07;;
13114;SDS011;6623;52.120;8.660;2023-01-28T03:05:22;2.43;;;2.00;;
13114;SDS011;6623;52.120;8.660;2023-01-28T03:07:52;2.87;;;2.00;;
13114;SDS011;6623;52.120;8.660;2023-01-28T03:10:19;2.50;;;2.30;;
13114;SDS011;6623;52.120;8.660;2023-01-28T03:12:50;2.97;;;1.97;;
13114;SDS011;6623;52.120;8.660;2023-01-28T03:15:46;3.33;;;2.33;;
13114;SDS011;6623;52.120;8.660;2023-01-28T03:18:32;2.97;;;2.20;;
13114;SDS011;6623;52.120;8.660;2023-01-28T03:21:29;4.80;;;2.00;;
13114;SDS011;6623;52.120;8.660;2023-01-28T03:24:25;3.13;;;2.03;;
13114;SDS011;6623;52.120;8.660;2023-01-28T03:27:17;4.67;;;1.90;;
13114;SDS011;6623;52.120;8.660;2023-01-28T03:30:11;2.80;;;1.93;;
13114;SDS011;6623;52.120;8.660;2023-01-28T03:33:10;3.50;;;2.40;;
13114;SDS011;6623;52.120;8.660;2023-01-28T03:35:55;2.43;;;2.00;;
13114;SDS011;6623;52.120;8.660;2023-01-28T03:38:40;4.27;;;2.20;;
13114;SDS011;6623;52.120;8.660;2023-01-28T03:41:07;3.10;;;2.00;;
13114;SDS011;6623;52.120;8.660;2023-01-28T03:43:35;3.27;;;2.00;;
13114;SDS011;6623;52.120;8.660;2023-01-28T03:46:01;2.20;;;2.00;;
13114;SDS011;6623;52.120;8.660;2023-01-28T03:48:30;1.90;;;1.80;;
13114;SDS011;6623;52.120;8.660;2023-01-28T03:50:55;2.70;;;1.70;;
13114;SDS011;6623;52.120;8.660;2023-01-28T03:53:22;3.20;;;1.73;;
13114;SDS011;6623;52.120;8.660;2023-01-28T03:55:49;3.13;;;2.13;;
13114;SDS011;6623;52.120;8.660;2023-01-28T03:58:16;2.30;;;2.10;;
13114;SDS011;6623;52.120;8.660;2023-01-28T04:00:42;2.37;;;2.07;;
13114;SDS011;6623;52.120;8.660;2023-01-28T04:05:44;3.07;;;2.30;;
13114;SDS011;6623;52.120;8.660;2023-01-28T04:08:21;2.60;;;2.23;;
13114;SDS011;6623;52.120;8.660;2023-01-28T04:10:46;3.70;;;2.17;;
13114;SDS011;6623;52.120;8.660;2023-01-28T04:13:12;2.50;;;2.23;;
13114;SDS011;6623;52.120;8.660;2023-01-28T04:15:37;2.60;;;2.23;;
13114;SDS011;6623;52.120;8.660;2023-01-28T04:18:03;2.00;;;1.90;;
13114;SDS011;6623;52.120;8.660;2023-01-28T04:20:28;3.30;;;2.30;;
13114;SDS011;6623;52.120;8.660;2023-01-28T04:22:54;2.57;;;2.10;;
13114;SDS011;6623;52.120;8.660;2023-01-28T04:25:20;2.30;;;2.10;;
13114;SDS011;6623;52.120;8.660;2023-01-28T04:27:45;2.97;;;2.30;;
13114;SDS011;6623;52.120;8.660;2023-01-28T04:30:11;2.43;;;2.10;;
13114;SDS011;6623;52.120;8.660;2023-01-28T04:32:36;2.40;;;2.07;;
13114;SDS011;6623;52.120;8.660;2023-01-28T04:35:02;3.03;;;2.03;;
13114;SDS011;6623;52.120;8.660;2023-01-28T04:37:27;2.90;;;2.17;;
13114;SDS011;6623;52.120;8.660;2023-01-28T04:39:53;2.60;;;2.40;;
13114;SDS011;6623;52.120;8.660;2023-01-28T04:42:18;3.43;;;2.10;;
13114;SDS011;6623;52.120;8.660;2023-01-28T04:44:44;2.40;;;2.20;;
13114;SDS011;6623;52.120;8.660;2023-01-28T04:47:09;2.07;;;1.87;;
13114;SDS011;6623;52.120;8.660;2023-01-28T04:49:35;2.90;;;2.13;;
13114;SDS011;6623;52.120;8.660;2023-01-28T04:52:00;2.40;;;2.17;;
13114;SDS011;6623;52.120;8.660;2023-01-28T04:54:26;3.00;;;2.20;;
13114;SDS011;6623;52.120;8.660;2023-01-28T04:56:51;2.83;;;1.90;;
13114;SDS011;6623;52.120;8.660;2023-01-28T04:59:17;2.73;;;1.93;;
13114;SDS011;6623;52.120;8.660;2023-01-28T05:01:43;2.10;;;1.93;;
13114;SDS011;6623;52.120;8.660;2023-01-28T05:04:09;2.30;;;2.10;;
13114;SDS011;6623;52.120;8.660;2023-01-28T05:06:34;2.47;;;2.10;;
13114;SDS011;6623;52.120;8.660;2023-01-28T05:09:00;3.60;;;2.30;;
13114;SDS011;6623;52.120;8.660;2023-01-28T05:11:26;3.13;;;2.10;;
13114;SDS011;6623;52.120;8.660;2023-01-28T05:13:52;2.53;;;2.20;;
13114;SDS011;6623;52.120;8.660;2023-01-28T05:16:18;3.07;;;2.60;;
13114;SDS011;6623;52.120;8.660;2023-01-28T05:18:44;3.93;;;2.80;;
13114;SDS011;6623;52.120;8.660;2023-01-28T05:21:11;4.30;;;2.40;;
13114;SDS011;6623;52.120;8.660;2023-01-28T05:23:37;5.10;;;2.80;;
13114;SDS011;6623;52.120;8.660;2023-01-28T05:26:03;3.13;;;2.63;;
13114;SDS011;6623;52.120;8.660;2023-01-28T05:28:29;3.63;;;2.50;;
13114;SDS011;6623;52.120;8.660;2023-01-28T05:30:54;2.80;;;2.50;;
13114;SDS011;6623;52.120;8.660;2023-01-28T05:33:20;3.57;;;2.50;;
13114;SDS011;6623;52.120;8.660;2023-01-28T05:35:46;2.60;;;2.40;;
13114;SDS011;6623;52.120;8.660;2023-01-28T05:38:13;3.53;;;2.60;;
13114;SDS011;6623;52.120;8.660;2023-01-28T05:40:39;4.27;;;2.70;;
13114;SDS011;6623;52.120;8.660;2023-01-28T05:43:04;3.13;;;2.30;;
13114;SDS011;6623;52.120;8.660;2023-01-28T05:45:30;3.03;;;2.50;;
13114;SDS011;6623;52.120;8.660;2023-01-28T05:47:55;3.10;;;2.60;;
13114;SDS011;6623;52.120;8.660;2023-01-28T05:50:21;2.90;;;2.60;;
13114;SDS011;6623;52.120;8.660;2023-01-28T05:52:46;3.00;;;2.50;;
13114;SDS011;6623;52.120;8.660;2023-01-28T05:55:12;3.20;;;2.30;;
13114;SDS011;6623;52.120;8.660;2023-01-28T05:57:37;3.23;;;2.33;;
13114;SDS011;6623;52.120;8.660;2023-01-28T06:00:03;3.80;;;2.70;;
13114;SDS011;6623;52.120;8.660;2023-01-28T06:02:29;3.57;;;2.50;;
13114;SDS011;6623;52.120;8.660;2023-01-28T06:04:55;4.67;;;2.90;;
13114;SDS011;6623;52.120;8.660;2023-01-28T06:07:20;4.17;;;3.00;;
13114;SDS011;6623;52.120;8.660;2023-01-28T06:09:47;2.13;;;1.90;;
13114;SDS011;6623;52.120;8.660;2023-01-28T06:12:13;5.20;;;2.30;;
13114;SDS011;6623;52.120;8.660;2023-01-28T06:14:39;3.17;;;2.60;;
13114;SDS011;6623;52.120;8.660;2023-01-28T06:17:05;2.87;;;2.53;;
13114;SDS011;6623;52.120;8.660;2023-01-28T06:19:31;3.07;;;2.40;;
13114;SDS011;6623;52.120;8.660;2023-01-28T06:21:56;4.40;;;2.40;;
13114;SDS011;6623;52.120;8.660;2023-01-28T06:24:22;3.40;;;2.20;;
13114;SDS011;6623;52.120;8.660;2023-01-28T06:26:47;5.70;;;2.67;;
13114;SDS011;6623;52.120;8.660;2023-01-28T06:29:13;3.57;;;2.17;;
13114;SDS011;6623;52.120;8.660;2023-01-28T06:31:38;3.03;;;2.20;;
13114;SDS011;6623;52.120;8.660;2023-01-28T06:34:04;3.10;;;2.20;;
13114;SDS011;6623;52.120;8.660;2023-01-28T06:36:30;2.90;;;2.30;;
13114;SDS011;6623;52.120;8.660;2023-01-28T06:38:55;4.00;;;1.90;;
13114;SDS011;6623;52.120;8.660;2023-01-28T06:41:21;3.63;;;2.00;;
13114;SDS011;6623;52.120;8.660;2023-01-28T06:43:47;3.13;;;2.27;;
13114;SDS011;6623;52.120;8.660;2023-01-28T06:46:12;3.77;;;2.47;;
13114;SDS011;6623;52.120;8.660;2023-01-28T06:48:38;3.63;;;2.10;;
13114;SDS011;6623;52.120;8.660;2023-01-28T06:51:03;2.50;;;2.10;;
13114;SDS011;6623;52.120;8.660;2023-01-28T06:53:29;2.83;;;2.47;;
13114;SDS011;6623;52.120;8.660;2023-01-28T06:55:55;3.07;;;2.17;;
13114;SDS011;6623;52.120;8.660;2023-01-28T06:58:20;2.43;;;2.10;;
13114;SDS011;6623;52.120;8.660;2023-01-28T07:00:46;3.33;;;2.40;;
13114;SDS011;6623;52.120;8.660;2023-01-28T07:03:11;3.17;;;2.10;;
13114;SDS011;6623;52.120;8.660;2023-01-28T07:05:37;2.77;;;2.20;;
13114;SDS011;6623;52.120;8.660;2023-01-28T07:08:02;3.30;;;2.40;;
13114;SDS011;6623;52.120;8.660;2023-01-28T07:10:28;2.57;;;2.37;;
13114;SDS011;6623;52.120;8.660;2023-01-28T07:12:54;3.83;;;2.60;;
13114;SDS011;6623;52.120;8.660;2023-01-28T07:15:20;3.60;;;2.30;;
13114;SDS011;6623;52.120;8.660;2023-01-28T07:17:45;2.70;;;2.40;;
13114;SDS011;6623;52.120;8.660;2023-01-28T07:20:12;2.70;;;2.50;;
13114;SDS011;6623;52.120;8.660;2023-01-28T07:22:39;2.60;;;2.40;;
13114;SDS011;6623;52.120;8.660;2023-01-28T07:25:06;2.97;;;2.47;;
13114;SDS011;6623;52.120;8.660;2023-01-28T07:27:33;4.90;;;2.83;;
13114;SDS011;6623;52.120;8.660;2023-01-28T07:29:59;2.37;;;2.17;;
13114;SDS011;6623;52.120;8.660;2023-01-28T07:32:24;3.40;;;2.27;;
13114;SDS011;6623;52.120;8.660;2023-01-28T07:34:51;3.17;;;2.40;;
13114;SDS011;6623;52.120;8.660;2023-01-28T07:37:17;2.40;;;2.20;;
13114;SDS011;6623;52.120;8.660;2023-01-28T07:39:43;2.83;;;2.60;;
13114;SDS011;6623;52.120;8.660;2023-01-28T07:42:09;3.07;;;2.23;;
13114;SDS011;6623;52.120;8.660;2023-01-28T07:44:34;2.57;;;2.37;;
13114;SDS011;6623;52.120;8.660;2023-01-28T07:47:01;2.70;;;2.50;;
13114;SDS011;6623;52.120;8.660;2023-01-28T07:49:27;2.63;;;2.43;;
13114;SDS011;6623;52.120;8.660;2023-01-28T07:51:52;3.87;;;2.63;;
13114;SDS011;6623;52.120;8.660;2023-01-28T07:54:18;2.97;;;2.47;;
13114;SDS011;6623;52.120;8.660;2023-01-28T07:56:43;2.60;;;2.40;;
13114;SDS011;6623;52.120;8.660;2023-01-28T07:59:09;3.20;;;2.30;;
13114;SDS011;6623;52.120;8.660;2023-01-28T08:01:34;2.57;;;2.37;;
13114;SDS011;6623;52.120;8.660;2023-01-28T08:04:00;3.13;;;2.60;;
13114;SDS011;6623;52.120;8.660;2023-01-28T08:06:27;2.80;;;2.30;;
13114;SDS011;6623;52.120;8.660;2023-01-28T08:08:53;4.07;;;2.87;;
13114;SDS011;6623;52.120;8.660;2023-01-28T08:11:19;4.37;;;2.77;;
13114;SDS011;6623;52.120;8.660;2023-01-28T08:13:45;2.80;;;2.60;;
13114;SDS011;6623;52.120;8.660;2023-01-28T08:16:10;3.83;;;2.40;;
13114;SDS011;6623;52.120;8.660;2023-01-28T08:18:36;4.07;;;2.83;;
13114;SDS011;6623;52.120;8.660;2023-01-28T08:21:01;3.40;;;2.93;;
13114;SDS011;6623;52.120;8.660;2023-01-28T08:23:29;3.57;;;2.60;;
13114;SDS011;6623;52.120;8.660;2023-01-28T08:25:56;3.33;;;2.57;;
13114;SDS011;6623;52.120;8.660;2023-01-28T08:28:22;3.97;;;2.60;;
13114;SDS011;6623;52.120;8.660;2023-01-28T08:30:48;3.40;;;2.90;;
13114;SDS011;6623;52.120;8.660;2023-01-28T08:33:14;2.90;;;2.70;;
13114;SDS011;6623;52.120;8.660;2023-01-28T08:35:41;3.73;;;3.23;;
13114;SDS011;6623;52.120;8.660;2023-01-28T08:38:07;2.87;;;2.63;;
13114;SDS011;6623;52.120;8.660;2023-01-28T08:40:35;2.77;;;2.57;;
13114;SDS011;6623;52.120;8.660;2023-01-28T08:43:01;4.00;;;2.50;;
13114;SDS011;6623;52.120;8.660;2023-01-28T08:45:27;5.13;;;2.70;;
13114;SDS011;6623;52.120;8.660;2023-01-28T08:48:14;3.57;;;2.60;;
13114;SDS011;6623;52.120;8.660;2023-01-28T08:50:41;3.67;;;2.20;;
13114;SDS011;6623;52.120;8.660;2023-01-28T08:53:09;3.23;;;2.50;;
13114;SDS011;6623;52.120;8.660;2023-01-28T08:55:36;3.00;;;2.40;;
13114;SDS011;6623;52.120;8.660;2023-01-28T08:58:02;3.93;;;2.50;;
13114;SDS011;6623;52.120;8.660;2023-01-28T09:00:33;3.97;;;2.40;;
13114;SDS011;6623;52.120;8.660;2023-01-28T09:02:59;2.83;;;2.53;;
13114;SDS011;6623;52.120;8.660;2023-01-28T09:05:25;3.17;;;2.70;;
13114;SDS011;6623;52.120;8.660;2023-01-28T09:07:50;3.53;;;2.97;;
13114;SDS011;6623;52.120;8.660;2023-01-28T09:10:16;3.70;;;2.60;;
13114;SDS011;6623;52.120;8.660;2023-01-28T09:12:44;2.80;;;2.50;;
13114;SDS011;6623;52.120;8.660;2023-01-28T09:15:10;2.93;;;2.37;;
13114;SDS011;6623;52.120;8.660;2023-01-28T09:17:36;2.23;;;2.03;;
13114;SDS011;6623;52.120;8.660;2023-01-28T09:20:02;3.87;;;2.60;;
13114;SDS011;6623;52.120;8.660;2023-01-28T09:22:28;2.87;;;2.60;;
13114;SDS011;6623;52.120;8.660;2023-01-28T09:24:54;3.60;;;2.60;;
13114;SDS011;6623;52.120;8.660;2023-01-28T09:27:19;3.97;;;2.17;;
13114;SDS011;6623;52.120;8.660;2023-01-28T09:29:45;3.03;;;2.23;;
13114;SDS011;6623;52.120;8.660;2023-01-28T09:32:10;2.60;;;2.20;;
13114;SDS011;6623;52.120;8.660;2023-01-28T09:34:36;3.00;;;2.67;;
13114;SDS011;6623;52.120;8.660;2023-01-28T09:37:01;5.63;;;2.93;;
13114;SDS011;6623;52.120;8.660;2023-01-28T09:39:27;3.00;;;2.60;;
13114;SDS011;6623;52.120;8.660;2023-01-28T09:42:03;3.50;;;3.10;;
13114;SDS011;6623;52.120;8.660;2023-01-28T09:45:11;3.53;;;2.90;;
13114;SDS011;6623;52.120;8.660;2023-01-28T09:50:22;3.47;;;2.73;;
13114;SDS011;6623;52.120;8.660;2023-01-28T09:53:15;3.10;;;2.80;;
13114;SDS011;6623;52.120;8.660;2023-01-28T09:55:45;3.20;;;2.73;;
13114;SDS011;6623;52.120;8.660;2023-01-28T09:58:19;3.20;;;2.90;;
13114;SDS011;6623;52.120;8.660;2023-01-28T10:03:41;2.53;;;2.33;;
13114;SDS011;6623;52.120;8.660;2023-01-28T10:06:25;4.23;;;2.40;;
13114;SDS011;6623;52.120;8.660;2023-01-28T10:09:03;2.60;;;2.40;;
13114;SDS011;6623;52.120;8.660;2023-01-28T10:17:42;6.13;;;2.60;;
13114;SDS011;6623;52.120;8.660;2023-01-28T10:25:26;2.60;;;2.40;;
13114;SDS011;6623;52.120;8.660;2023-01-28T10:27:55;3.50;;;2.07;;
13114;SDS011;6623;52.120;8.660;2023-01-28T10:30:25;2.93;;;2.23;;
13114;SDS011;6623;52.120;8.660;2023-01-28T10:35:46;2.83;;;2.57;;
13114;SDS011;6623;52.120;8.660;2023-01-28T10:38:13;2.83;;;2.40;;
13114;SDS011;6623;52.120;8.660;2023-01-28T10:40:43;3.47;;;3.07;;
13114;SDS011;6623;52.120;8.660;2023-01-28T10:43:11;4.70;;;2.60;;
13114;SDS011;6623;52.120;8.660;2023-01-28T10:45:48;3.57;;;3.20;;
13114;SDS011;6623;52.120;8.660;2023-01-28T10:48:53;2.90;;;2.70;;
13114;SDS011;6623;52.120;8.660;2023-01-28T10:51:34;3.80;;;2.87;;
13114;SDS011;6623;52.120;8.660;2023-01-28T10:54:03;3.53;;;2.40;;
13114;SDS011;6623;52.120;8.660;2023-01-28T10:56:56;3.77;;;2.80;;
13114;SDS011;6623;52.120;8.660;2023-01-28T10:59:26;2.67;;;2.47;;
13114;SDS011;6623;52.120;8.660;2023-01-28T11:02:00;2.40;;;2.20;;
13114;SDS011;6623;52.120;8.660;2023-01-28T11:04:29;3.37;;;2.70;;
13114;SDS011;6623;52.120;8.660;2023-01-28T11:06:59;3.63;;;2.67;;
13114;SDS011;6623;52.120;8.660;2023-01-28T11:09:30;3.60;;;2.60;;
13114;SDS011;6623;52.120;8.660;2023-01-28T11:12:16;3.23;;;2.93;;
13114;SDS011;6623;52.120;8.660;2023-01-28T11:14:51;3.57;;;2.70;;
13114;SDS011;6623;52.120;8.660;2023-01-28T11:17:19;2.93;;;2.73;;
13114;SDS011;6623;52.120;8.660;2023-01-28T11:19:48;2.80;;;2.60;;
13114;SDS011;6623;52.120;8.660;2023-01-28T11:22:19;4.60;;;3.00;;
13114;SDS011;6623;52.120;8.660;2023-01-28T11:25:14;3.07;;;2.77;;
13114;SDS011;6623;52.120;8.660;2023-01-28T11:27:53;4.17;;;3.13;;
13114;SDS011;6623;52.120;8.660;2023-01-28T11:30:23;3.60;;;3.30;;
13114;SDS011;6623;52.120;8.660;2023-01-28T11:38:21;5.63;;;3.23;;
13114;SDS011;6623;52.120;8.660;2023-01-28T11:40:49;3.77;;;2.93;;
13114;SDS011;6623;52.120;8.660;2023-01-28T11:43:23;3.90;;;3.50;;
13114;SDS011;6623;52.120;8.660;2023-01-28T11:45:59;3.93;;;3.50;;
13114;SDS011;6623;52.120;8.660;2023-01-28T11:51:31;3.87;;;3.30;;
13114;SDS011;6623;52.120;8.660;2023-01-28T11:54:13;3.73;;;3.40;;
13114;SDS011;6623;52.120;8.660;2023-01-28T11:57:01;3.47;;;3.17;;
13114;SDS011;6623;52.120;8.660;2023-01-28T11:59:52;6.90;;;3.60;;
13114;SDS011;6623;52.120;8.660;2023-01-28T12:13:51;5.37;;;3.53;;
13114;SDS011;6623;52.120;8.660;2023-01-28T12:16:32;4.73;;;3.83;;
13114;SDS011;6623;52.120;8.660;2023-01-28T12:27:32;4.20;;;3.80;;
13114;SDS011;6623;52.120;8.660;2023-01-28T12:35:52;3.63;;;3.33;;
13114;SDS011;6623;52.120;8.660;2023-01-28T12:40:58;4.37;;;3.43;;
13114;SDS011;6623;52.120;8.660;2023-01-28T12:46:01;3.40;;;3.10;;
13114;SDS011;6623;52.120;8.660;2023-01-28T12:48:34;5.37;;;3.70;;
13114;SDS011;6623;52.120;8.660;2023-01-28T12:51:06;3.50;;;3.20;;
13114;SDS011;6623;52.120;8.660;2023-01-28T12:56:26;3.97;;;3.57;;
13114;SDS011;6623;52.120;8.660;2023-01-28T12:59:02;4.23;;;3.53;;
13114;SDS011;6623;52.120;8.660;2023-01-28T13:01:43;4.00;;;3.70;;
13114;SDS011;6623;52.120;8.660;2023-01-28T13:04:20;3.50;;;3.20;;
13114;SDS011;6623;52.120;8.660;2023-01-28T13:07:25;3.40;;;3.10;;
13114;SDS011;6623;52.120;8.660;2023-01-28T13:10:01;3.70;;;3.23;;
13114;SDS011;6623;52.120;8.660;2023-01-28T13:12:36;3.90;;;3.33;;
13114;SDS011;6623;52.120;8.660;2023-01-28T13:15:04;3.50;;;3.20;;
13114;SDS011;6623;52.120;8.660;2023-01-28T13:17:35;4.27;;;3.50;;
13114;SDS011;6623;52.120;8.660;2023-01-28T13:20:01;4.20;;;3.60;;
13114;SDS011;6623;52.120;8.660;2023-01-28T13:22:39;4.87;;;3.87;;
13114;SDS011;6623;52.120;8.660;2023-01-28T13:25:11;4.70;;;3.67;;
13114;SDS011;6623;52.120;8.660;2023-01-28T13:28:05;4.10;;;3.73;;
13114;SDS011;6623;52.120;8.660;2023-01-28T13:30:48;5.27;;;4.00;;
13114;SDS011;6623;52.120;8.660;2023-01-28T13:38:40;3.90;;;3.50;;
13114;SDS011;6623;52.120;8.660;2023-01-28T13:41:06;3.87;;;3.53;;
13114;SDS011;6623;52.120;8.660;2023-01-28T13:46:25;3.70;;;3.20;;
13114;SDS011;6623;52.120;8.660;2023-01-28T13:48:53;7.40;;;4.03;;
13114;SDS011;6623;52.120;8.660;2023-01-28T13:51:22;5.30;;;4.50;;
13114;SDS011;6623;52.120;8.660;2023-01-28T13:53:59;4.07;;;3.70;;
13114;SDS011;6623;52.120;8.660;2023-01-28T13:56:40;4.40;;;4.00;;
13114;SDS011;6623;52.120;8.660;2023-01-28T13:59:30;4.70;;;4.10;;
13114;SDS011;6623;52.120;8.660;2023-01-28T14:18:24;4.60;;;4.20;;
13114;SDS011;6623;52.120;8.660;2023-01-28T14:20:52;6.17;;;4.10;;
13114;SDS011;6623;52.120;8.660;2023-01-28T14:23:21;4.70;;;4.10;;
13114;SDS011;6623;52.120;8.660;2023-01-28T14:28:40;4.93;;;4.20;;
13114;SDS011;6623;52.120;8.660;2023-01-28T14:31:32;5.13;;;4.10;;
13114;SDS011;6623;52.120;8.660;2023-01-28T14:34:06;6.83;;;4.63;;
13114;SDS011;6623;52.120;8.660;2023-01-28T14:36:43;4.63;;;4.23;;
13114;SDS011;6623;52.120;8.660;2023-01-28T14:39:20;4.90;;;4.50;;
13114;SDS011;6623;52.120;8.660;2023-01-28T14:41:49;4.50;;;4.10;;
13114;SDS011;6623;52.120;8.660;2023-01-28T14:44:26;7.80;;;5.97;;
13114;SDS011;6623;52.120;8.660;2023-01-28T14:52:47;5.97;;;4.90;;
13114;SDS011;6623;52.120;8.660;2023-01-28T14:55:37;4.77;;;4.30;;
13114;SDS011;6623;52.120;8.660;2023-01-28T14:58:13;5.67;;;4.87;;
13114;SDS011;6623;52.120;8.660;2023-01-28T15:00:51;4.87;;;4.33;;
13114;SDS011;6623;52.120;8.660;2023-01-28T15:03:19;5.13;;;4.33;;
13114;SDS011;6623;52.120;8.660;2023-01-28T15:05:45;4.83;;;4.33;;
13114;SDS011;6623;52.120;8.660;2023-01-28T15:08:20;6.30;;;4.60;;
13114;SDS011;6623;52.120;8.660;2023-01-28T15:10:46;6.23;;;4.73;;
13114;SDS011;6623;52.120;8.660;2023-01-28T15:13:23;5.13;;;4.63;;
13114;SDS011;6623;52.120;8.660;2023-01-28T15:15:54;4.97;;;4.47;;
13114;SDS011;6623;52.120;8.660;2023-01-28T15:18:27;5.83;;;5.30;;
13114;SDS011;6623;52.120;8.660;2023-01-28T15:20:59;7.07;;;5.03;;
13114;SDS011;6623;52.120;8.660;2023-01-28T15:23:27;6.23;;;4.80;;
13114;SDS011;6623;52.120;8.660;2023-01-28T15:25:56;5.97;;;4.90;;
13114;SDS011;6623;52.120;8.660;2023-01-28T15:28:29;6.67;;;5.00;;
13114;SDS011;6623;52.120;8.660;2023-01-28T15:30:56;6.33;;;4.73;;
13114;SDS011;6623;52.120;8.660;2023-01-28T15:33:23;6.60;;;5.20;;
13114;SDS011;6623;52.120;8.660;2023-01-28T15:35:50;6.70;;;5.10;;
13114;SDS011;6623;52.120;8.660;2023-01-28T15:38:20;9.77;;;5.73;;
13114;SDS011;6623;52.120;8.660;2023-01-28T15:40:48;7.23;;;6.03;;
13114;SDS011;6623;52.120;8.660;2023-01-28T15:43:24;6.60;;;5.80;;
13114;SDS011;6623;52.120;8.660;2023-01-28T15:45:53;7.33;;;6.43;;
13114;SDS011;6623;52.120;8.660;2023-01-28T15:48:20;6.63;;;5.57;;
13114;SDS011;6623;52.120;8.660;2023-01-28T15:50:56;6.33;;;5.43;;
13114;SDS011;6623;52.120;8.660;2023-01-28T15:53:23;7.13;;;5.87;;
13114;SDS011;6623;52.120;8.660;2023-01-28T15:55:49;7.40;;;6.53;;
13114;SDS011;6623;52.120;8.660;2023-01-28T16:01:01;7.17;;;6.47;;
13114;SDS011;6623;52.120;8.660;2023-01-28T16:03:33;7.47;;;6.27;;
13114;SDS011;6623;52.120;8.660;2023-01-28T16:06:34;7.67;;;6.93;;
13114;SDS011;6623;52.120;8.660;2023-01-28T16:08:55;9.23;;;6.73;;
13114;SDS011;6623;52.120;8.660;2023-01-28T16:11:23;8.10;;;6.93;;
13114;SDS011;6623;52.120;8.660;2023-01-28T16:13:52;9.03;;;7.70;;
13114;SDS011;6623;52.120;8.660;2023-01-28T16:16:26;10.30;;;7.50;;
13114;SDS011;6623;52.120;8.660;2023-01-28T16:18:54;10.93;;;7.33;;
13114;SDS011;6623;52.120;8.660;2023-01-28T16:21:24;9.97;;;7.60;;
13114;SDS011;6623;52.120;8.660;2023-01-28T16:24:02;9.63;;;7.67;;
13114;SDS011;6623;52.120;8.660;2023-01-28T16:26:30;12.23;;;9.03;;
13114;SDS011;6623;52.120;8.660;2023-01-28T16:28:59;11.77;;;8.13;;
13114;SDS011;6623;52.120;8.660;2023-01-28T16:31:38;10.50;;;7.70;;
13114;SDS011;6623;52.120;8.660;2023-01-28T16:34:03;9.27;;;7.47;;
13114;SDS011;6623;52.120;8.660;2023-01-28T16:36:29;9.70;;;7.93;;
13114;SDS011;6623;52.120;8.660;2023-01-28T16:38:54;8.87;;;7.67;;
13114;SDS011;6623;52.120;8.660;2023-01-28T16:41:23;8.27;;;7.20;;
13114;SDS011;6623;52.120;8.660;2023-01-28T16:43:50;8.30;;;6.93;;
13114;SDS011;6623;52.120;8.660;2023-01-28T16:46:16;7.63;;;6.77;;
13114;SDS011;6623;52.120;8.660;2023-01-28T16:48:42;8.80;;;7.43;;
13114;SDS011;6623;52.120;8.660;2023-01-28T16:51:14;7.80;;;6.93;;
13114;SDS011;6623;52.120;8.660;2023-01-28T16:53:42;10.27;;;7.70;;
13114;SDS011;6623;52.120;8.660;2023-01-28T16:56:10;9.10;;;6.93;;
13114;SDS011;6623;52.120;8.660;2023-01-28T16:58:39;9.10;;;6.77;;
13114;SDS011;6623;52.120;8.660;2023-01-28T17:01:04;10.07;;;7.07;;
13114;SDS011;6623;52.120;8.660;2023-01-28T17:03:30;10.33;;;7.00;;
13114;SDS011;6623;52.120;8.660;2023-01-28T17:05:55;9.00;;;6.83;;
13114;SDS011;6623;52.120;8.660;2023-01-28T17:08:21;11.57;;;7.30;;